createdAt,value
2019-04-23T00:00:35.114Z,72.43
2019-04-23T00:01:37.604Z,72.53
2019-04-23T00:02:40.724Z,72.43
2019-04-23T00:03:34.438Z,72.62
2019-04-23T00:04:30.128Z,72.43
2019-04-23T00:05:41.778Z,72.62
2019-04-23T00:06:36.498Z,72.53
2019-04-23T00:07:44.334Z,72.62
2019-04-23T00:08:46.244Z,72.62
2019-04-23T00:09:32.868Z,72.62
2019-04-23T00:10:55.204Z,72.53
2019-04-23T00:11:35.743Z,72.91
2019-04-23T00:12:49.662Z,72.91
2019-04-23T00:13:40.348Z,72.81
2019-04-23T00:14:38.522Z,72.81
2019-04-23T00:15:33.841Z,73.07
2019-04-23T00:16:35.062Z,73.25
2019-04-23T00:17:38.879Z,73.48
2019-04-23T00:18:36.944Z,73.63
2019-04-23T00:19:32.951Z,74.30
2019-04-23T00:20:33.995Z,74.59
2019-04-23T00:21:38.860Z,74.21
2019-04-23T00:22:37.074Z,74.69
2019-04-23T00:23:35.728Z,75.07
2019-04-23T00:24:53.335Z,74.88
2019-04-23T00:27:37.254Z,75.64
2019-04-23T00:28:35.931Z,75.45
2019-04-23T00:29:37.009Z,75.45
2019-04-23T00:30:44.095Z,75.64
2019-04-23T00:31:53.206Z,75.83
2019-04-23T00:32:36.299Z,76.12
2019-04-23T00:33:31.350Z,76.12
2019-04-23T00:34:35.461Z,76.31
2019-04-23T00:35:34.051Z,75.93
2019-04-23T00:36:40.414Z,75.83
2019-04-23T00:37:33.142Z,76.69
2019-04-23T00:38:34.973Z,76.88
2019-04-23T00:39:34.286Z,77.17
2019-04-23T00:40:35.409Z,76.79
2019-04-23T00:42:37.521Z,76.31
2019-04-23T00:43:48.744Z,76.21
2019-04-23T00:44:32.499Z,76.84
2019-04-23T00:45:34.686Z,76.65
2019-04-23T00:49:30.958Z,76.75
2019-04-23T00:50:38.418Z,76.84
2019-04-23T00:51:33.102Z,77.13
2019-04-23T00:53:32.681Z,77.23
2019-04-23T00:54:34.221Z,77.03
2019-04-23T00:55:29.878Z,76.75
2019-04-23T00:56:40.254Z,77.13
2019-04-23T00:57:43.552Z,76.94
2019-04-23T00:59:28.261Z,75.79
2019-04-23T01:00:33.647Z,75.70
2019-04-23T01:01:36.924Z,75.89
2019-04-23T01:02:33.277Z,75.42
2019-04-23T01:03:27.387Z,75.51
2019-04-23T01:04:32.814Z,75.79
2019-04-23T01:05:31.097Z,75.22
2019-04-23T01:06:29.017Z,75.42
2019-04-23T01:07:33.376Z,75.22
2019-04-23T01:08:29.649Z,74.84
2019-04-23T01:09:30.277Z,74.27
2019-04-23T01:10:27.126Z,74.37
2019-04-23T01:11:26.986Z,74.46
2019-04-23T01:12:38.356Z,74.55
2019-04-23T01:13:34.474Z,74.08
2019-04-23T01:14:31.537Z,74.17
2019-04-23T01:15:32.637Z,74.37
2019-04-23T01:16:21.273Z,73.41
2019-04-23T01:17:31.854Z,73.41
2019-04-23T01:18:37.839Z,73.98
2019-04-23T01:19:31.567Z,73.60
2019-04-23T01:20:29.252Z,73.69
2019-04-23T01:21:07.437Z,74.17
2019-04-23T01:22:06.427Z,74.17
2019-04-23T01:23:07.360Z,74.27
2019-04-23T01:24:10.260Z,74.08
2019-04-23T01:25:13.485Z,73.69
2019-04-23T01:26:23.876Z,73.79
2019-04-23T01:28:36.721Z,73.60
2019-04-23T01:29:36.522Z,73.60
2019-04-23T01:30:28.172Z,73.22
2019-04-23T01:31:31.947Z,72.45
2019-04-23T01:32:31.973Z,71.88
2019-04-23T01:33:51.799Z,71.78
2019-04-23T01:34:31.446Z,71.50
2019-04-23T01:35:25.582Z,71.59
2019-04-23T01:37:30.358Z,71.41
2019-04-23T01:38:35.551Z,71.59
2019-04-23T01:39:27.506Z,71.41
2019-04-23T01:40:31.880Z,71.41
2019-04-23T01:42:35.978Z,71.50
2019-04-23T01:43:33.210Z,71.50
2019-04-23T01:44:38.576Z,71.31
2019-04-23T01:46:31.419Z,70.83
2019-04-23T01:47:33.693Z,71.12
2019-04-23T01:48:26.724Z,71.02
2019-04-23T01:49:35.986Z,70.73
2019-04-23T01:51:38.192Z,71.69
2019-04-23T01:52:34.464Z,71.21
2019-04-23T01:54:30.331Z,70.54
2019-04-23T01:55:38.420Z,70.73
2019-04-23T01:56:30.474Z,70.92
2019-04-23T01:57:35.376Z,70.54
2019-04-23T01:59:31.814Z,70.73
2019-04-23T02:00:28.970Z,70.73
2019-04-23T02:01:48.313Z,70.92
2019-04-23T02:02:29.366Z,70.73
2019-04-23T02:03:26.559Z,70.54
2019-04-23T02:04:28.685Z,70.64
2019-04-23T02:05:32.567Z,70.92
2019-04-23T02:06:25.152Z,71.02
2019-04-23T02:07:31.060Z,70.64
2019-04-23T02:08:28.378Z,71.21
2019-04-23T02:09:42.207Z,70.54
2019-04-23T02:11:25.607Z,70.73
2019-04-23T02:12:28.247Z,70.79
2019-04-23T02:13:31.182Z,71.18
2019-04-23T02:14:32.734Z,70.70
2019-04-23T02:15:31.910Z,71.27
2019-04-23T02:16:31.616Z,71.56
2019-04-23T02:17:28.752Z,71.75
2019-04-23T02:18:23.381Z,71.08
2019-04-23T02:19:33.255Z,71.18
2019-04-23T02:21:31.980Z,71.27
2019-04-23T02:22:31.451Z,71.66
2019-04-23T02:23:30.080Z,71.18
2019-04-23T02:24:24.410Z,70.98
2019-04-23T02:25:40.842Z,71.46
2019-04-23T02:26:36.866Z,71.56
2019-04-23T02:27:29.616Z,70.79
2019-04-23T02:28:25.460Z,71.08
2019-04-23T02:29:41.571Z,70.51
2019-04-23T02:30:53.173Z,70.98
2019-04-23T02:31:45.123Z,70.70
2019-04-23T02:32:35.673Z,70.89
2019-04-23T02:33:40.374Z,70.79
2019-04-23T02:34:50.435Z,70.32
2019-04-23T02:35:46.381Z,70.61
2019-04-23T02:36:31.723Z,69.84
2019-04-23T02:37:45.735Z,70.32
2019-04-23T02:38:42.856Z,69.93
2019-04-23T02:39:45.988Z,70.32
2019-04-23T02:40:38.003Z,69.93
2019-04-23T02:42:49.631Z,70.22
2019-04-23T02:43:39.200Z,70.42
2019-04-23T02:44:34.943Z,69.56
2019-04-23T02:45:39.672Z,69.74
2019-04-23T02:46:18.088Z,69.65
2019-04-23T02:47:34.997Z,69.37
2019-04-23T02:49:39.170Z,69.27
2019-04-23T02:51:35.312Z,69.74
2019-04-23T02:52:33.925Z,69.27
2019-04-23T02:53:37.512Z,69.46
2019-04-23T02:55:41.790Z,69.46
2019-04-23T02:57:31.260Z,69.65
2019-04-23T02:58:43.781Z,68.88
2019-04-23T02:59:42.273Z,68.88
2019-04-23T03:01:27.873Z,69.08
2019-04-23T03:03:35.419Z,69.56
2019-04-23T03:05:32.072Z,69.74
2019-04-23T03:06:29.857Z,70.42
2019-04-23T03:07:36.738Z,70.61
2019-04-23T03:09:36.657Z,70.28
2019-04-23T03:12:31.445Z,70.95
2019-04-23T03:13:48.276Z,70.67
2019-04-23T03:14:26.775Z,71.62
2019-04-23T03:15:50.481Z,71.62
2019-04-23T03:16:55.066Z,71.52
2019-04-23T03:17:15.009Z,71.43
2019-04-23T03:19:31.928Z,71.33
2019-04-23T03:20:48.857Z,71.62
2019-04-23T03:22:25.152Z,72.19
2019-04-23T03:23:34.437Z,71.81
2019-04-23T03:24:38.902Z,72.00
2019-04-23T03:26:47.946Z,72.28
2019-04-23T03:27:28.776Z,72.48
2019-04-23T03:29:31.382Z,72.57
2019-04-23T03:30:48.358Z,72.76
2019-04-23T03:35:08.686Z,72.38
2019-04-23T03:35:09.291Z,72.96
2019-04-23T03:39:31.495Z,72.57
2019-04-23T03:41:39.635Z,72.67
2019-04-23T03:42:24.437Z,72.38
2019-04-23T03:43:33.274Z,72.76
2019-04-23T03:44:29.985Z,72.09
2019-04-23T03:47:24.540Z,72.19
2019-04-23T03:48:41.256Z,72.28
2019-04-23T03:49:19.686Z,72.57
2019-04-23T03:51:28.916Z,72.72
2019-04-23T03:52:32.978Z,72.63
2019-04-23T03:53:34.378Z,72.72
2019-04-23T03:55:30.287Z,72.57
2019-04-23T03:57:25.251Z,72.19
2019-04-23T03:58:30.619Z,71.39
2019-04-23T03:59:37.059Z,71.87
2019-04-23T04:03:42.407Z,71.23
2019-04-23T04:04:25.192Z,71.48
2019-04-23T04:05:32.889Z,71.23
2019-04-23T04:06:35.147Z,71.39
2019-04-23T04:07:29.286Z,71.39
2019-04-23T04:10:21.220Z,70.63
2019-04-23T04:12:29.908Z,70.47
2019-04-23T04:14:34.303Z,70.38
2019-04-23T04:15:41.534Z,70.28
2019-04-23T04:16:18.216Z,69.43
2019-04-23T04:17:23.777Z,68.57
2019-04-23T04:18:35.956Z,68.95
2019-04-23T04:19:31.981Z,68.38
2019-04-23T04:20:26.481Z,67.83
2019-04-23T04:22:33.926Z,66.98
2019-04-23T04:23:22.791Z,67.07
2019-04-23T04:25:26.058Z,66.02
2019-04-23T04:26:22.610Z,66.41
2019-04-23T04:28:28.640Z,66.41
2019-04-23T04:29:21.789Z,65.93
2019-04-23T04:30:22.239Z,66.02
2019-04-23T04:31:21.086Z,65.67
2019-04-23T04:32:09.810Z,65.55
2019-04-23T04:33:29.913Z,65.01
2019-04-23T04:34:43.734Z,65.39
2019-04-23T04:36:21.635Z,64.43
2019-04-23T04:39:15.644Z,64.15
2019-04-23T04:40:29.531Z,63.86
2019-04-23T04:42:33.640Z,64.15
2019-04-23T04:45:30.355Z,63.29
2019-04-23T04:47:21.116Z,62.65
2019-04-23T04:48:19.979Z,62.37
2019-04-23T04:50:20.953Z,61.51
2019-04-23T04:53:33.773Z,61.79
2019-04-23T04:54:13.928Z,61.79
2019-04-23T04:56:23.034Z,61.03
2019-04-23T04:57:20.783Z,61.13
2019-04-23T04:58:32.603Z,60.84
2019-04-23T04:59:18.157Z,60.46
2019-04-23T05:00:27.446Z,60.84
2019-04-23T05:02:38.903Z,60.58
2019-04-23T05:04:20.170Z,60.20
2019-04-23T05:05:38.078Z,59.81
2019-04-23T05:07:19.238Z,59.15
2019-04-23T05:11:17.457Z,59.53
2019-04-23T05:12:18.915Z,58.95
2019-04-23T05:13:33.772Z,58.86
2019-04-23T05:14:13.590Z,58.70
2019-04-23T05:15:25.162Z,58.22
2019-04-23T05:16:16.056Z,57.81
2019-04-23T05:17:16.819Z,58.86
2019-04-23T05:18:17.296Z,58.76
2019-04-23T05:19:25.099Z,58.48
2019-04-23T05:20:16.704Z,58.32
2019-04-23T05:24:16.295Z,57.84
2019-04-23T05:25:05.506Z,57.75
2019-04-23T05:26:13.621Z,57.55
2019-04-23T05:27:16.112Z,57.55
2019-04-23T05:29:14.521Z,56.72
2019-04-23T05:30:15.562Z,56.34
2019-04-23T05:31:12.373Z,56.43
2019-04-23T05:32:07.589Z,56.50
2019-04-23T05:33:14.531Z,56.24
2019-04-23T05:34:11.158Z,56.05
2019-04-23T05:35:09.892Z,56.43
2019-04-23T05:36:27.018Z,56.05
2019-04-23T05:37:06.197Z,55.96
2019-04-23T05:38:19.782Z,55.86
2019-04-23T05:40:21.747Z,55.76
2019-04-23T05:41:10.388Z,55.38
2019-04-23T05:42:04.356Z,55.47
2019-04-23T05:43:03.236Z,55.67
2019-04-23T05:44:10.692Z,55.31
2019-04-23T05:45:01.116Z,54.83
2019-04-23T05:46:04.407Z,55.57
2019-04-23T05:47:15.015Z,55.38
2019-04-23T05:49:07.631Z,56.05
2019-04-23T05:50:12.685Z,55.96
2019-04-23T05:51:11.316Z,55.29
2019-04-23T05:53:09.920Z,54.93
2019-04-23T05:54:08.511Z,55.05
2019-04-23T05:57:01.789Z,54.43
2019-04-23T05:58:15.053Z,55.02
2019-04-23T05:59:08.522Z,55.22
2019-04-23T06:00:02.126Z,54.64
2019-04-23T06:01:25.179Z,53.42
2019-04-23T06:05:03.266Z,53.81
2019-04-23T06:06:14.286Z,53.59
2019-04-23T06:07:15.362Z,53.78
2019-04-23T06:08:03.430Z,53.81
2019-04-23T06:09:07.818Z,53.14
2019-04-23T06:10:06.442Z,53.04
2019-04-23T06:11:12.907Z,52.87
2019-04-23T06:12:02.856Z,51.65
2019-04-23T06:13:04.493Z,51.63
2019-04-23T06:14:09.746Z,51.89
2019-04-23T06:15:05.742Z,52.18
2019-04-23T06:16:08.519Z,52.75
2019-04-23T06:17:03.690Z,53.69
2019-04-23T06:18:08.985Z,54.64
2019-04-23T06:19:09.738Z,53.71
2019-04-23T06:20:04.302Z,53.52
2019-04-23T06:21:03.014Z,53.91
2019-04-23T06:22:23.427Z,53.36
2019-04-23T06:23:05.469Z,52.33
2019-04-23T06:24:10.369Z,51.20
2019-04-23T06:24:59.825Z,51.06
2019-04-23T06:26:24.313Z,51.89
2019-04-23T06:28:06.613Z,52.66
2019-04-23T06:29:05.399Z,52.66
2019-04-23T06:30:19.263Z,52.66
2019-04-23T06:31:05.001Z,53.42
2019-04-23T06:32:13.003Z,53.52
2019-04-23T06:33:08.837Z,53.45
2019-04-23T06:34:08.468Z,52.69
2019-04-23T06:34:56.595Z,52.50
2019-04-23T06:36:05.435Z,52.47
2019-04-23T06:37:01.994Z,53.42
2019-04-23T06:38:22.135Z,53.42
2019-04-23T06:38:57.171Z,52.69
2019-04-23T06:39:59.775Z,51.65
2019-04-23T06:41:05.736Z,51.37
2019-04-23T06:42:03.856Z,51.37
2019-04-23T06:42:57.879Z,51.63
2019-04-23T06:44:06.101Z,52.40
2019-04-23T06:46:03.637Z,52.30
2019-04-23T06:48:01.745Z,52.01
2019-04-23T06:49:04.158Z,52.40
2019-04-23T06:51:07.938Z,51.85
2019-04-23T06:52:08.315Z,52.50
2019-04-23T06:52:54.463Z,52.62
2019-04-23T06:53:57.909Z,51.95
2019-04-23T06:55:18.471Z,51.65
2019-04-23T06:58:06.966Z,49.82
2019-04-23T06:59:01.343Z,49.12
2019-04-23T06:59:54.651Z,49.19
2019-04-23T07:01:03.451Z,50.70
2019-04-23T07:02:59.769Z,51.92
2019-04-23T07:04:02.988Z,52.40
2019-04-23T07:05:06.514Z,52.23
2019-04-23T07:06:15.458Z,51.85
2019-04-23T07:07:59.716Z,51.65
2019-04-23T07:10:12.988Z,51.20
2019-04-23T07:11:05.330Z,50.53
2019-04-23T07:11:55.194Z,50.63
2019-04-23T07:12:56.009Z,51.46
2019-04-23T07:13:57.138Z,52.14
2019-04-23T07:15:02.797Z,52.04
2019-04-23T07:15:52.004Z,51.78
2019-04-23T07:16:54.594Z,52.23
2019-04-23T07:17:55.365Z,51.59
2019-04-23T07:18:57.530Z,51.42
2019-04-23T07:19:54.865Z,50.94
2019-04-23T07:21:01.236Z,50.99
2019-04-23T07:21:59.252Z,52.14
2019-04-23T07:23:03.570Z,51.75
2019-04-23T07:23:59.813Z,52.07
2019-04-23T07:24:52.868Z,51.68
2019-04-23T07:26:02.458Z,51.01
2019-04-23T07:26:44.984Z,51.01
2019-04-23T07:27:59.026Z,51.28
2019-04-23T07:29:00.447Z,51.85
2019-04-23T07:30:06.595Z,52.81
2019-04-23T07:31:02.450Z,53.26
2019-04-23T07:31:58.987Z,54.03
2019-04-23T07:32:56.612Z,54.77
2019-04-23T07:33:55.755Z,55.63
2019-04-23T07:35:00.942Z,55.69
2019-04-23T07:35:52.262Z,55.41
2019-04-23T07:36:55.769Z,56.72
2019-04-23T07:38:16.319Z,56.72
2019-04-23T07:40:09.878Z,57.77
2019-04-23T07:40:54.393Z,58.06
2019-04-23T07:42:03.535Z,57.68
2019-04-23T07:42:59.154Z,57.97
2019-04-23T07:44:02.700Z,58.63
2019-04-23T07:44:56.862Z,58.34
2019-04-23T07:46:02.326Z,58.34
2019-04-23T07:47:05.351Z,58.34
2019-04-23T07:48:01.580Z,57.87
2019-04-23T07:48:47.961Z,57.97
2019-04-23T07:50:19.242Z,58.73
2019-04-23T07:51:06.204Z,58.83
2019-04-23T07:51:57.231Z,58.83
2019-04-23T07:53:01.813Z,57.87
2019-04-23T07:54:01.259Z,57.77
2019-04-23T07:55:02.415Z,58.34
2019-04-23T07:55:58.618Z,58.73
2019-04-23T07:57:02.238Z,58.54
2019-04-23T07:58:01.950Z,58.34
2019-04-23T07:58:56.810Z,58.95
2019-04-23T07:59:59.206Z,58.37
2019-04-23T08:01:04.936Z,57.80
2019-04-23T08:01:58.162Z,57.80
2019-04-23T08:03:00.497Z,57.42
2019-04-23T08:05:04.833Z,58.18
2019-04-23T08:05:50.918Z,57.99
2019-04-23T08:06:53.046Z,57.80
2019-04-23T08:07:57.142Z,57.80
2019-04-23T08:08:50.878Z,57.70
2019-04-23T08:09:53.247Z,58.09
2019-04-23T08:11:16.325Z,57.80
2019-04-23T08:11:59.433Z,57.80
2019-04-23T08:12:53.944Z,57.73
2019-04-23T08:13:58.653Z,57.54
2019-04-23T08:14:55.370Z,56.97
2019-04-23T08:16:46.570Z,57.45
2019-04-23T08:17:50.498Z,57.64
2019-04-23T08:19:56.057Z,57.13
2019-04-23T08:20:55.746Z,57.45
2019-04-23T08:21:58.172Z,57.64
2019-04-23T08:22:53.754Z,56.94
2019-04-23T08:23:56.936Z,56.94
2019-04-23T08:25:03.292Z,57.23
2019-04-23T08:26:09.527Z,57.35
2019-04-23T08:26:55.330Z,56.49
2019-04-23T08:27:51.086Z,56.97
2019-04-23T08:28:58.449Z,56.77
2019-04-23T08:29:47.821Z,56.68
2019-04-23T08:30:56.781Z,57.16
2019-04-23T08:31:51.962Z,57.06
2019-04-23T08:32:52.353Z,56.77
2019-04-23T08:33:57.780Z,57.16
2019-04-23T08:34:58.646Z,56.87
2019-04-23T08:35:50.992Z,57.16
2019-04-23T08:36:48.328Z,56.99
2019-04-23T08:38:04.602Z,56.77
2019-04-23T08:39:05.349Z,56.77
2019-04-23T08:39:46.995Z,56.90
2019-04-23T08:40:58.891Z,56.61
2019-04-23T08:43:12.883Z,56.71
2019-04-23T08:44:10.661Z,56.83
2019-04-23T08:44:56.993Z,55.78
2019-04-23T08:45:46.279Z,55.40
2019-04-23T08:46:56.896Z,55.11
2019-04-23T08:47:56.534Z,55.49
2019-04-23T08:48:49.714Z,55.08
2019-04-23T08:49:47.033Z,55.68
2019-04-23T08:50:46.551Z,55.30
2019-04-23T08:51:57.049Z,55.58
2019-04-23T08:53:00.176Z,55.23
2019-04-23T08:53:48.095Z,55.13
2019-04-23T08:55:01.541Z,55.04
2019-04-23T08:55:49.239Z,54.21
2019-04-23T08:56:48.703Z,54.78
2019-04-23T08:57:43.997Z,53.82
2019-04-23T08:58:46.249Z,53.15
2019-04-23T09:01:58.041Z,52.31
2019-04-23T09:02:55.025Z,51.28
2019-04-23T09:03:39.459Z,50.70
2019-04-23T09:06:45.317Z,50.27
2019-04-23T09:07:57.135Z,49.96
2019-04-23T09:08:44.316Z,50.05
2019-04-23T09:09:52.066Z,50.15
2019-04-23T09:10:50.269Z,49.22
2019-04-23T09:13:54.709Z,49.12
2019-04-23T09:14:45.046Z,48.45
2019-04-23T09:17:47.845Z,48.08
2019-04-23T09:18:45.888Z,48.30
2019-04-23T09:20:39.272Z,47.80
2019-04-23T09:22:09.422Z,49.22
2019-04-23T09:22:48.797Z,49.84
2019-04-23T09:23:46.666Z,51.16
2019-04-23T09:24:50.670Z,52.19
2019-04-23T09:25:49.846Z,52.67
2019-04-23T09:26:41.444Z,52.89
2019-04-23T09:27:44.807Z,52.05
2019-04-23T09:29:58.680Z,49.79
2019-04-23T09:30:49.290Z,49.24
2019-04-23T09:32:07.761Z,48.95
2019-04-23T09:33:00.836Z,47.82
2019-04-23T09:33:54.817Z,47.24
2019-04-23T09:34:52.367Z,47.31
2019-04-23T09:35:48.400Z,47.92
2019-04-23T09:37:49.186Z,47.70
2019-04-23T09:38:46.757Z,47.80
2019-04-23T09:39:49.515Z,47.61
2019-04-23T09:40:54.894Z,47.92
2019-04-23T09:41:39.563Z,47.53
2019-04-23T09:42:47.540Z,47.70
2019-04-23T09:44:02.815Z,47.99
2019-04-23T09:44:55.906Z,48.18
2019-04-23T09:46:49.601Z,47.92
2019-04-23T09:47:47.416Z,47.44
2019-04-23T09:48:54.701Z,47.44
2019-04-23T09:49:39.771Z,47.63
2019-04-23T09:50:43.361Z,47.53
2019-04-23T09:51:46.822Z,47.51
2019-04-23T09:52:48.448Z,47.72
2019-04-23T09:53:46.546Z,47.19
2019-04-23T09:54:47.722Z,46.33
2019-04-23T09:55:43.409Z,45.94
2019-04-23T09:56:44.624Z,45.94
2019-04-23T09:57:43.444Z,45.92
2019-04-23T09:58:48.511Z,46.47
2019-04-23T09:59:43.088Z,47.61
2019-04-23T10:00:40.691Z,47.41
2019-04-23T10:01:49.776Z,47.70
2019-04-23T10:02:29.097Z,48.08
2019-04-23T10:03:25.719Z,48.38
2019-04-23T10:04:28.185Z,47.99
2019-04-23T10:05:28.741Z,48.02
2019-04-23T10:06:20.863Z,47.65
2019-04-23T10:07:26.996Z,47.36
2019-04-23T10:08:21.156Z,46.86
2019-04-23T10:09:14.601Z,46.69
2019-04-23T10:10:14.404Z,46.77
2019-04-23T10:11:13.820Z,47.15
2019-04-23T10:12:14.654Z,46.69
2019-04-23T10:13:13.717Z,46.11
2019-04-23T10:14:14.496Z,46.01
2019-04-23T10:15:21.693Z,45.83
2019-04-23T10:16:15.743Z,46.86
2019-04-23T10:17:13.961Z,47.15
2019-04-23T10:18:14.018Z,47.24
2019-04-23T10:19:12.840Z,47.63
2019-04-23T10:20:12.888Z,47.31
2019-04-23T10:21:13.125Z,47.82
2019-04-23T10:22:13.321Z,47.27
2019-04-23T10:23:12.572Z,47.17
2019-04-23T10:24:12.964Z,46.21
2019-04-23T10:25:12.961Z,45.53
2019-04-23T10:26:12.337Z,46.11
2019-04-23T10:27:12.122Z,45.73
2019-04-23T10:28:13.245Z,45.75
2019-04-23T10:29:11.942Z,46.04
2019-04-23T10:30:12.351Z,46.06
2019-04-23T10:31:12.696Z,45.27
2019-04-23T10:32:11.762Z,46.01
2019-04-23T10:33:11.677Z,46.31
2019-04-23T10:34:12.261Z,46.47
2019-04-23T10:35:22.409Z,47.27
2019-04-23T10:36:15.420Z,46.11
2019-04-23T10:37:11.455Z,46.33
2019-04-23T10:38:14.781Z,46.19
2019-04-23T10:39:17.585Z,47.36
2019-04-23T10:40:16.955Z,47.15
2019-04-23T10:41:12.047Z,47.27
2019-04-23T10:42:11.922Z,46.40
2019-04-23T10:43:11.166Z,46.21
2019-04-23T10:44:11.003Z,45.94
2019-04-23T10:45:24.032Z,46.01
2019-04-23T10:46:32.978Z,46.06
2019-04-23T10:47:42.520Z,45.94
2019-04-23T10:49:47.745Z,45.44
2019-04-23T10:50:46.463Z,46.59
2019-04-23T10:51:52.134Z,46.25
2019-04-23T10:53:40.940Z,46.11
2019-04-23T10:54:43.346Z,46.31
2019-04-23T10:55:46.792Z,46.50
2019-04-23T10:56:40.773Z,46.50
2019-04-23T10:57:31.473Z,46.52
2019-04-23T10:58:36.553Z,47.08
2019-04-23T11:00:36.066Z,48.21
2019-04-23T11:01:45.067Z,47.92
2019-04-23T11:02:47.349Z,48.38
2019-04-23T11:04:53.404Z,49.07
2019-04-23T11:06:41.079Z,49.24
2019-04-23T11:08:38.630Z,49.72
2019-04-23T11:10:42.961Z,48.79
2019-04-23T11:11:36.141Z,49.27
2019-04-23T11:13:43.398Z,49.07
2019-04-23T11:14:42.212Z,49.63
2019-04-23T11:15:49.332Z,50.20
2019-04-23T11:18:46.866Z,49.91
2019-04-23T11:19:39.936Z,49.91
2019-04-23T11:20:33.786Z,50.10
2019-04-23T11:21:34.121Z,49.74
2019-04-23T11:23:39.225Z,49.24
2019-04-23T11:26:39.594Z,51.23
2019-04-23T11:27:35.769Z,51.14
2019-04-23T11:28:34.777Z,51.04
2019-04-23T11:29:38.644Z,50.66
2019-04-23T11:31:41.584Z,50.87
2019-04-23T11:32:46.947Z,51.26
2019-04-23T11:33:40.371Z,50.78
2019-04-23T11:34:57.048Z,50.56
2019-04-23T11:35:47.731Z,50.46
2019-04-23T11:37:47.918Z,50.85
2019-04-23T11:39:37.464Z,51.26
2019-04-23T11:42:41.310Z,50.87
2019-04-23T11:43:32.404Z,50.59
2019-04-23T11:44:45.828Z,51.07
2019-04-23T11:45:44.110Z,50.87
2019-04-23T11:48:04.858Z,50.40
2019-04-23T11:48:46.395Z,50.78
2019-04-23T11:49:53.390Z,50.59
2019-04-23T11:51:20.797Z,50.30
2019-04-23T11:51:45.956Z,50.32
2019-04-23T11:53:42.484Z,49.91
2019-04-23T11:54:30.731Z,50.71
2019-04-23T11:56:53.686Z,50.04
2019-04-23T11:58:39.257Z,49.55
2019-04-23T11:59:53.122Z,49.55
2019-04-23T12:00:44.985Z,49.27
2019-04-23T12:01:44.746Z,49.65
2019-04-23T12:02:40.302Z,50.23
2019-04-23T12:03:40.868Z,50.01
2019-04-23T12:04:37.237Z,49.63
2019-04-23T12:05:41.652Z,50.01
2019-04-23T12:06:49.276Z,50.04
2019-04-23T12:07:36.237Z,50.23
2019-04-23T12:08:43.089Z,49.68
2019-04-23T12:10:43.033Z,49.68
2019-04-23T12:12:39.976Z,49.29
2019-04-23T12:13:35.537Z,49.00
2019-04-23T12:14:35.303Z,49.10
2019-04-23T12:15:32.763Z,49.10
2019-04-23T12:16:42.980Z,48.90
2019-04-23T12:17:31.687Z,49.36
2019-04-23T12:18:58.169Z,49.29
2019-04-23T12:19:52.970Z,49.48
2019-04-23T12:20:33.136Z,49.29
2019-04-23T12:21:37.428Z,48.52
2019-04-23T12:22:30.123Z,48.33
2019-04-23T12:23:40.523Z,48.23
2019-04-23T12:25:04.333Z,48.13
2019-04-23T12:26:40.751Z,48.61
2019-04-23T12:27:30.690Z,48.69
2019-04-23T12:28:33.726Z,48.40
2019-04-23T12:29:33.225Z,49.46
2019-04-23T12:30:33.923Z,49.55
2019-04-23T12:31:31.233Z,49.36
2019-04-23T12:33:41.137Z,48.81
2019-04-23T12:34:35.832Z,48.03
2019-04-23T12:35:22.498Z,48.23
2019-04-23T12:36:43.740Z,48.35
2019-04-23T12:37:41.000Z,48.25
2019-04-23T12:38:47.932Z,47.77
2019-04-23T12:39:39.091Z,47.41
2019-04-23T12:40:27.078Z,47.80
2019-04-23T12:41:29.838Z,47.80
2019-04-23T12:42:50.431Z,47.89
2019-04-23T12:43:40.053Z,47.58
2019-04-23T12:44:34.974Z,47.49
2019-04-23T12:45:35.664Z,47.87
2019-04-23T12:46:30.059Z,48.06
2019-04-23T12:47:49.226Z,47.77
2019-04-23T12:49:50.856Z,47.85
2019-04-23T12:50:44.901Z,48.23
2019-04-23T12:51:38.440Z,48.03
2019-04-23T12:53:30.547Z,48.90
2019-04-23T12:54:41.122Z,48.61
2019-04-23T12:55:42.184Z,48.90
2019-04-23T12:56:31.014Z,49.29
2019-04-23T12:57:28.750Z,49.29
2019-04-23T12:58:38.360Z,49.58
2019-04-23T12:59:26.948Z,49.60
2019-04-23T13:00:25.709Z,49.19
2019-04-23T13:01:35.727Z,49.58
2019-04-23T13:02:33.078Z,50.04
2019-04-23T13:04:24.654Z,50.13
2019-04-23T13:06:20.446Z,49.84
2019-04-23T13:07:36.988Z,49.94
2019-04-23T13:08:33.610Z,50.04
2019-04-23T13:10:30.187Z,50.42
2019-04-23T13:11:30.096Z,49.87
2019-04-23T13:12:37.734Z,49.68
2019-04-23T13:14:35.060Z,50.25
2019-04-23T13:15:23.035Z,50.04
2019-04-23T13:16:39.922Z,50.04
2019-04-23T13:17:44.449Z,50.06
2019-04-23T13:18:29.921Z,50.15
2019-04-23T13:19:32.864Z,50.25
2019-04-23T13:20:23.623Z,50.06
2019-04-23T13:21:46.682Z,49.96
2019-04-23T13:22:30.792Z,50.15
2019-04-23T13:23:26.293Z,50.04
2019-04-23T13:24:25.962Z,50.99
2019-04-23T13:25:28.324Z,50.99
2019-04-23T13:26:13.497Z,51.26
2019-04-23T13:27:30.738Z,52.03
2019-04-23T13:28:21.686Z,51.84
2019-04-23T13:29:27.263Z,52.32
2019-04-23T13:30:34.440Z,51.45
2019-04-23T13:31:14.958Z,52.03
2019-04-23T13:34:22.984Z,51.84
2019-04-23T13:35:38.070Z,52.12
2019-04-23T13:36:29.665Z,52.12
2019-04-23T13:37:33.652Z,52.42
2019-04-23T13:38:25.120Z,51.96
2019-04-23T13:39:29.095Z,51.86
2019-04-23T13:40:23.539Z,51.38
2019-04-23T13:41:21.090Z,51.86
2019-04-23T13:42:31.882Z,51.86
2019-04-23T13:43:31.798Z,51.96
2019-04-23T13:44:26.088Z,51.96
2019-04-23T13:45:51.211Z,51.86
2019-04-23T13:46:16.180Z,52.12
2019-04-23T13:47:29.902Z,52.12
2019-04-23T13:48:15.167Z,52.42
2019-04-23T13:49:27.729Z,52.51
2019-04-23T13:50:32.784Z,52.70
2019-04-23T13:51:27.341Z,52.70
2019-04-23T13:52:50.511Z,52.70
2019-04-23T13:53:39.343Z,52.61
2019-04-23T13:54:43.705Z,52.99
2019-04-23T13:55:14.480Z,53.66
2019-04-23T13:56:24.255Z,53.57
2019-04-23T13:57:57.358Z,53.47
2019-04-23T13:58:36.343Z,53.66
2019-04-23T13:59:26.504Z,53.76
2019-04-23T14:00:24.978Z,53.86
2019-04-23T14:01:26.298Z,54.05
2019-04-23T14:02:31.283Z,53.76
2019-04-23T14:03:26.449Z,53.66
2019-04-23T14:04:32.856Z,54.60
2019-04-23T14:05:21.703Z,54.69
2019-04-23T14:07:25.183Z,55.08
2019-04-23T14:09:32.924Z,55.01
2019-04-23T14:11:23.707Z,55.30
2019-04-23T14:12:22.256Z,55.11
2019-04-23T14:13:38.608Z,54.82
2019-04-23T14:14:25.240Z,55.11
2019-04-23T14:15:31.119Z,54.72
2019-04-23T14:19:16.532Z,55.11
2019-04-23T14:22:43.487Z,55.94
2019-04-23T14:23:27.312Z,56.62
2019-04-23T14:26:25.982Z,57.20
2019-04-23T14:27:19.706Z,57.77
2019-04-23T14:28:21.626Z,57.87
2019-04-23T14:29:22.947Z,58.06
2019-04-23T14:30:21.808Z,57.77
2019-04-23T14:32:28.591Z,58.06
2019-04-23T14:35:25.482Z,58.89
2019-04-23T14:36:21.534Z,58.99
2019-04-23T14:38:22.081Z,59.66
2019-04-23T14:39:21.670Z,59.95
2019-04-23T14:40:26.522Z,60.53
2019-04-23T14:43:30.851Z,60.14
2019-04-23T14:45:32.743Z,60.34
2019-04-23T14:47:24.025Z,60.40
2019-04-23T14:48:14.666Z,60.21
2019-04-23T14:49:12.680Z,60.31
2019-04-23T14:51:29.215Z,60.98
2019-04-23T14:52:21.943Z,60.88
2019-04-23T14:54:13.400Z,61.55
2019-04-23T14:56:15.759Z,61.84
2019-04-23T14:58:31.075Z,61.36
2019-04-23T15:00:18.574Z,62.04
2019-04-23T15:01:28.597Z,62.01
2019-04-23T15:02:19.559Z,62.77
2019-04-23T15:03:20.218Z,63.06
2019-04-23T15:04:10.822Z,63.45
2019-04-23T15:05:17.359Z,62.96
2019-04-23T15:06:20.424Z,63.92
2019-04-23T15:07:22.935Z,64.31
2019-04-23T15:08:16.843Z,64.40
2019-04-23T15:10:23.361Z,64.02
2019-04-23T15:12:16.094Z,64.12
2019-04-23T15:13:14.736Z,64.40
2019-04-23T15:14:14.612Z,64.31
2019-04-23T15:15:14.238Z,64.59
2019-04-23T15:16:17.115Z,65.08
2019-04-23T15:17:16.610Z,64.22
2019-04-23T15:18:13.212Z,63.92
2019-04-23T15:19:19.877Z,64.40
2019-04-23T15:20:20.257Z,64.79
2019-04-23T15:21:38.012Z,64.31
2019-04-23T15:23:33.246Z,64.98
2019-04-23T15:27:02.495Z,65.84
2019-04-23T15:28:06.705Z,65.91
2019-04-23T15:28:56.062Z,66.29
2019-04-23T15:30:04.123Z,66.29
2019-04-23T15:31:19.192Z,66.29
2019-04-23T15:32:21.661Z,66.29
2019-04-23T15:34:15.596Z,66.10
2019-04-23T15:35:31.768Z,66.86
2019-04-23T15:37:20.379Z,66.86
2019-04-23T15:39:16.731Z,67.25
2019-04-23T15:41:16.914Z,66.86
2019-04-23T15:42:22.712Z,67.83
2019-04-23T15:43:10.524Z,68.02
2019-04-23T15:45:08.065Z,67.44
2019-04-23T15:46:24.066Z,67.54
2019-04-23T15:47:15.791Z,67.92
2019-04-23T15:48:12.129Z,68.59